sensor_id;sensor_type;location;lat;lon;timestamp;P1;durP1;ratioP1;P2;durP2;ratioP2
23628;SDS011;11991;57.150;-2.134;2024-02-21T00:00:04;2.33;;;0.60;;
23628;SDS011;11991;57.150;-2.134;2024-02-21T00:02:31;1.35;;;0.50;;
23628;SDS011;11991;57.150;-2.134;2024-02-21T00:04:58;2.15;;;0.80;;
23628;SDS011;11991;57.150;-2.134;2024-02-21T00:07:26;0.68;;;0.57;;
23628;SDS011;11991;57.150;-2.134;2024-02-21T00:09:53;0.98;;;0.70;;
23628;SDS011;11991;57.150;-2.134;2024-02-21T00:12:20;1.73;;;0.60;;
23628;SDS011;11991;57.150;-2.134;2024-02-21T00:14:48;1.20;;;0.70;;
23628;SDS011;11991;57.150;-2.134;2024-02-21T00:17:15;1.30;;;0.60;;
23628;SDS011;11991;57.150;-2.134;2024-02-21T00:19:42;0.68;;;0.50;;
23628;SDS011;11991;57.150;-2.134;2024-02-21T00:22:09;1.30;;;0.80;;
23628;SDS011;11991;57.150;-2.134;2024-02-21T00:24:36;2.67;;;0.90;;
23628;SDS011;11991;57.150;-2.134;2024-02-21T00:27:05;0.98;;;0.73;;
23628;SDS011;11991;57.150;-2.134;2024-02-21T00:29:32;1.98;;;0.80;;
23628;SDS011;11991;57.150;-2.134;2024-02-21T00:32:01;1.13;;;0.75;;
23628;SDS011;11991;57.150;-2.134;2024-02-21T00:34:28;1.42;;;0.60;;
23628;SDS011;11991;57.150;-2.134;2024-02-21T00:36:55;2.08;;;0.95;;
23628;SDS011;11991;57.150;-2.134;2024-02-21T00:39:23;0.80;;;0.60;;
23628;SDS011;11991;57.150;-2.134;2024-02-21T00:41:50;2.30;;;1.05;;
23628;SDS011;11991;57.150;-2.134;2024-02-21T00:44:17;1.42;;;0.70;;
23628;SDS011;11991;57.150;-2.134;2024-02-21T00:46:44;1.38;;;0.73;;
23628;SDS011;11991;57.150;-2.134;2024-02-21T00:49:13;0.98;;;0.70;;
23628;SDS011;11991;57.150;-2.134;2024-02-21T00:51:40;2.17;;;0.95;;
23628;SDS011;11991;57.150;-2.134;2024-02-21T00:54:07;2.65;;;1.08;;
23628;SDS011;11991;57.150;-2.134;2024-02-21T00:56:34;0.70;;;0.70;;
23628;SDS011;11991;57.150;-2.134;2024-02-21T00:59:01;0.95;;;0.80;;
23628;SDS011;11991;57.150;-2.134;2024-02-21T01:01:29;0.93;;;0.63;;
23628;SDS011;11991;57.150;-2.134;2024-02-21T01:03:56;4.10;;;1.20;;
23628;SDS011;11991;57.150;-2.134;2024-02-21T01:06:23;1.42;;;0.70;;
23628;SDS011;11991;57.150;-2.134;2024-02-21T01:08:51;1.60;;;0.70;;
23628;SDS011;11991;57.150;-2.134;2024-02-21T01:11:18;0.93;;;0.60;;
23628;SDS011;11991;57.150;-2.134;2024-02-21T01:13:45;1.15;;;0.70;;
23628;SDS011;11991;57.150;-2.134;2024-02-21T01:16:13;1.02;;;0.60;;
23628;SDS011;11991;57.150;-2.134;2024-02-21T01:18:40;3.00;;;1.02;;
23628;SDS011;11991;57.150;-2.134;2024-02-21T01:21:07;1.02;;;0.73;;
23628;SDS011;11991;57.150;-2.134;2024-02-21T01:23:36;1.30;;;0.77;;
23628;SDS011;11991;57.150;-2.134;2024-02-21T01:26:04;1.17;;;0.80;;
23628;SDS011;11991;57.150;-2.134;2024-02-21T01:28:31;1.65;;;0.80;;
23628;SDS011;11991;57.150;-2.134;2024-02-21T01:30:58;1.40;;;0.60;;
23628;SDS011;11991;57.150;-2.134;2024-02-21T01:33:26;0.80;;;0.70;;
23628;SDS011;11991;57.150;-2.134;2024-02-21T01:35:53;1.27;;;0.90;;
23628;SDS011;11991;57.150;-2.134;2024-02-21T01:38:21;1.33;;;0.73;;
23628;SDS011;11991;57.150;-2.134;2024-02-21T01:40:48;0.95;;;0.70;;
23628;SDS011;11991;57.150;-2.134;2024-02-21T01:43:15;1.40;;;0.98;;
23628;SDS011;11991;57.150;-2.134;2024-02-21T01:45:51;2.35;;;0.82;;
23628;SDS011;11991;57.150;-2.134;2024-02-21T01:48:21;1.25;;;0.80;;
23628;SDS011;11991;57.150;-2.134;2024-02-21T01:50:49;1.25;;;0.50;;
23628;SDS011;11991;57.150;-2.134;2024-02-21T01:53:30;1.00;;;0.75;;
23628;SDS011;11991;57.150;-2.134;2024-02-21T01:56:01;1.15;;;0.80;;
23628;SDS011;11991;57.150;-2.134;2024-02-21T01:58:28;0.98;;;0.65;;
23628;SDS011;11991;57.150;-2.134;2024-02-21T02:00:56;0.93;;;0.80;;
23628;SDS011;11991;57.150;-2.134;2024-02-21T02:03:24;1.25;;;0.60;;
23628;SDS011;11991;57.150;-2.134;2024-02-21T02:05:52;1.00;;;0.80;;
23628;SDS011;11991;57.150;-2.134;2024-02-21T02:08:19;1.67;;;0.93;;
23628;SDS011;11991;57.150;-2.134;2024-02-21T02:10:48;1.58;;;0.98;;
23628;SDS011;11991;57.150;-2.134;2024-02-21T02:13:16;2.75;;;1.38;;
23628;SDS011;11991;57.150;-2.134;2024-02-21T02:15:47;3.63;;;1.00;;
23628;SDS011;11991;57.150;-2.134;2024-02-21T02:18:16;1.15;;;0.75;;
23628;SDS011;11991;57.150;-2.134;2024-02-21T02:20:44;1.75;;;0.80;;
23628;SDS011;11991;57.150;-2.134;2024-02-21T02:25:52;1.83;;;0.73;;
23628;SDS011;11991;57.150;-2.134;2024-02-21T02:28:20;2.20;;;0.70;;
23628;SDS011;11991;57.150;-2.134;2024-02-21T02:30:48;1.58;;;0.80;;
23628;SDS011;11991;57.150;-2.134;2024-02-21T02:33:15;1.95;;;1.25;;
23628;SDS011;11991;57.150;-2.134;2024-02-21T02:35:46;1.95;;;0.80;;
23628;SDS011;11991;57.150;-2.134;2024-02-21T02:38:13;1.48;;;1.02;;
23628;SDS011;11991;57.150;-2.134;2024-02-21T02:40:41;2.83;;;1.00;;
23628;SDS011;11991;57.150;-2.134;2024-02-21T02:43:09;3.25;;;1.60;;
23628;SDS011;11991;57.150;-2.134;2024-02-21T02:45:36;2.30;;;1.15;;
23628;SDS011;11991;57.150;-2.134;2024-02-21T02:48:03;2.95;;;0.90;;
23628;SDS011;11991;57.150;-2.134;2024-02-21T02:50:31;5.40;;;1.00;;
23628;SDS011;11991;57.150;-2.134;2024-02-21T02:52:58;0.80;;;0.70;;
23628;SDS011;11991;57.150;-2.134;2024-02-21T02:55:26;1.75;;;0.82;;
23628;SDS011;11991;57.150;-2.134;2024-02-21T02:57:53;3.60;;;1.10;;
23628;SDS011;11991;57.150;-2.134;2024-02-21T03:00:21;2.87;;;1.00;;
23628;SDS011;11991;57.150;-2.134;2024-02-21T03:02:48;1.48;;;1.00;;
23628;SDS011;11991;57.150;-2.134;2024-02-21T03:05:17;4.30;;;1.30;;
23628;SDS011;11991;57.150;-2.134;2024-02-21T03:07:47;2.33;;;0.80;;
23628;SDS011;11991;57.150;-2.134;2024-02-21T03:10:16;2.23;;;1.30;;
23628;SDS011;11991;57.150;-2.134;2024-02-21T03:12:44;1.73;;;0.80;;
23628;SDS011;11991;57.150;-2.134;2024-02-21T03:15:12;2.47;;;1.13;;
23628;SDS011;11991;57.150;-2.134;2024-02-21T03:17:41;1.60;;;1.23;;
23628;SDS011;11991;57.150;-2.134;2024-02-21T03:20:08;3.55;;;1.33;;
23628;SDS011;11991;57.150;-2.134;2024-02-21T03:22:38;1.00;;;0.80;;
23628;SDS011;11991;57.150;-2.134;2024-02-21T03:25:07;3.45;;;1.23;;
23628;SDS011;11991;57.150;-2.134;2024-02-21T03:27:36;2.70;;;1.33;;
23628;SDS011;11991;57.150;-2.134;2024-02-21T03:30:03;2.85;;;1.10;;
23628;SDS011;11991;57.150;-2.134;2024-02-21T03:32:31;3.97;;;1.53;;
23628;SDS011;11991;57.150;-2.134;2024-02-21T03:34:58;2.20;;;1.17;;
23628;SDS011;11991;57.150;-2.134;2024-02-21T03:37:26;3.40;;;1.03;;
23628;SDS011;11991;57.150;-2.134;2024-02-21T03:39:53;3.55;;;1.00;;
23628;SDS011;11991;57.150;-2.134;2024-02-21T03:42:20;1.60;;;1.10;;
23628;SDS011;11991;57.150;-2.134;2024-02-21T03:44:47;3.33;;;1.10;;
23628;SDS011;11991;57.150;-2.134;2024-02-21T03:47:15;2.40;;;1.02;;
23628;SDS011;11991;57.150;-2.134;2024-02-21T03:49:42;3.35;;;1.20;;
23628;SDS011;11991;57.150;-2.134;2024-02-21T03:52:09;3.15;;;1.10;;
23628;SDS011;11991;57.150;-2.134;2024-02-21T03:54:37;1.90;;;1.08;;
23628;SDS011;11991;57.150;-2.134;2024-02-21T03:57:04;3.40;;;1.10;;
23628;SDS011;11991;57.150;-2.134;2024-02-21T03:59:32;3.47;;;1.00;;
23628;SDS011;11991;57.150;-2.134;2024-02-21T04:01:59;2.83;;;1.13;;
23628;SDS011;11991;57.150;-2.134;2024-02-21T04:04:27;3.42;;;1.30;;
23628;SDS011;11991;57.150;-2.134;2024-02-21T04:06:54;8.15;;;2.00;;
23628;SDS011;11991;57.150;-2.134;2024-02-21T04:09:21;2.47;;;1.33;;
23628;SDS011;11991;57.150;-2.134;2024-02-21T04:11:49;1.58;;;1.00;;
23628;SDS011;11991;57.150;-2.134;2024-02-21T04:14:16;3.15;;;1.00;;
23628;SDS011;11991;57.150;-2.134;2024-02-21T04:16:43;2.78;;;1.10;;
23628;SDS011;11991;57.150;-2.134;2024-02-21T04:19:11;2.25;;;0.98;;
23628;SDS011;11991;57.150;-2.134;2024-02-21T04:21:38;2.92;;;1.30;;
23628;SDS011;11991;57.150;-2.134;2024-02-21T04:24:05;1.60;;;1.02;;
23628;SDS011;11991;57.150;-2.134;2024-02-21T04:26:33;1.83;;;0.98;;
23628;SDS011;11991;57.150;-2.134;2024-02-21T04:29:01;2.72;;;1.40;;
23628;SDS011;11991;57.150;-2.134;2024-02-21T04:31:29;5.80;;;1.50;;
23628;SDS011;11991;57.150;-2.134;2024-02-21T04:33:58;5.05;;;1.73;;
23628;SDS011;11991;57.150;-2.134;2024-02-21T04:36:25;4.93;;;1.88;;
23628;SDS011;11991;57.150;-2.134;2024-02-21T04:38:53;6.57;;;1.65;;
23628;SDS011;11991;57.150;-2.134;2024-02-21T04:41:20;3.17;;;1.30;;
23628;SDS011;11991;57.150;-2.134;2024-02-21T04:43:47;6.05;;;1.75;;
23628;SDS011;11991;57.150;-2.134;2024-02-21T04:46:15;3.53;;;1.48;;
23628;SDS011;11991;57.150;-2.134;2024-02-21T04:48:42;6.97;;;2.08;;
23628;SDS011;11991;57.150;-2.134;2024-02-21T04:51:11;2.58;;;1.20;;
23628;SDS011;11991;57.150;-2.134;2024-02-21T04:53:38;3.45;;;1.30;;
23628;SDS011;11991;57.150;-2.134;2024-02-21T04:56:05;8.25;;;1.70;;
23628;SDS011;11991;57.150;-2.134;2024-02-21T04:58:33;5.70;;;1.52;;
23628;SDS011;11991;57.150;-2.134;2024-02-21T05:01:04;4.50;;;1.33;;
23628;SDS011;11991;57.150;-2.134;2024-02-21T05:03:31;3.30;;;1.52;;
23628;SDS011;11991;57.150;-2.134;2024-02-21T05:05:58;4.63;;;1.25;;
23628;SDS011;11991;57.150;-2.134;2024-02-21T05:08:26;3.78;;;1.77;;
23628;SDS011;11991;57.150;-2.134;2024-02-21T05:10:53;3.45;;;1.27;;
23628;SDS011;11991;57.150;-2.134;2024-02-21T05:13:21;3.60;;;1.27;;
23628;SDS011;11991;57.150;-2.134;2024-02-21T05:15:48;3.83;;;1.30;;
23628;SDS011;11991;57.150;-2.134;2024-02-21T05:18:15;2.20;;;1.10;;
23628;SDS011;11991;57.150;-2.134;2024-02-21T05:20:43;4.22;;;1.30;;
23628;SDS011;11991;57.150;-2.134;2024-02-21T05:23:10;4.57;;;1.77;;
23628;SDS011;11991;57.150;-2.134;2024-02-21T05:25:37;4.32;;;1.67;;
23628;SDS011;11991;57.150;-2.134;2024-02-21T05:28:04;3.83;;;1.48;;
23628;SDS011;11991;57.150;-2.134;2024-02-21T05:30:33;1.95;;;0.85;;
23628;SDS011;11991;57.150;-2.134;2024-02-21T05:33:03;1.92;;;0.80;;
23628;SDS011;11991;57.150;-2.134;2024-02-21T05:35:32;2.38;;;1.02;;
23628;SDS011;11991;57.150;-2.134;2024-02-21T05:38:00;2.08;;;0.90;;
23628;SDS011;11991;57.150;-2.134;2024-02-21T05:40:27;6.72;;;1.45;;
23628;SDS011;11991;57.150;-2.134;2024-02-21T05:42:54;4.27;;;1.53;;
23628;SDS011;11991;57.150;-2.134;2024-02-21T05:45:21;6.07;;;1.80;;
23628;SDS011;11991;57.150;-2.134;2024-02-21T05:47:49;4.00;;;1.38;;
23628;SDS011;11991;57.150;-2.134;2024-02-21T05:50:17;4.70;;;1.80;;
23628;SDS011;11991;57.150;-2.134;2024-02-21T05:52:44;4.63;;;1.42;;
23628;SDS011;11991;57.150;-2.134;2024-02-21T05:55:11;4.17;;;1.70;;
23628;SDS011;11991;57.150;-2.134;2024-02-21T05:57:38;6.97;;;1.50;;
23628;SDS011;11991;57.150;-2.134;2024-02-21T06:00:06;4.03;;;1.33;;
23628;SDS011;11991;57.150;-2.134;2024-02-21T06:02:39;3.30;;;1.00;;
23628;SDS011;11991;57.150;-2.134;2024-02-21T06:05:07;4.55;;;1.38;;
23628;SDS011;11991;57.150;-2.134;2024-02-21T06:07:35;3.53;;;1.17;;
23628;SDS011;11991;57.150;-2.134;2024-02-21T06:10:02;5.03;;;2.03;;
23628;SDS011;11991;57.150;-2.134;2024-02-21T06:12:30;3.05;;;1.27;;
23628;SDS011;11991;57.150;-2.134;2024-02-21T06:14:57;2.90;;;1.30;;
23628;SDS011;11991;57.150;-2.134;2024-02-21T06:17:24;3.92;;;1.52;;
23628;SDS011;11991;57.150;-2.134;2024-02-21T06:19:52;3.97;;;1.60;;
23628;SDS011;11991;57.150;-2.134;2024-02-21T06:22:19;6.18;;;1.60;;
23628;SDS011;11991;57.150;-2.134;2024-02-21T06:24:46;4.05;;;1.48;;
23628;SDS011;11991;57.150;-2.134;2024-02-21T06:27:13;7.93;;;2.22;;
23628;SDS011;11991;57.150;-2.134;2024-02-21T06:29:42;3.03;;;1.50;;
23628;SDS011;11991;57.150;-2.134;2024-02-21T06:32:10;4.70;;;1.30;;
23628;SDS011;11991;57.150;-2.134;2024-02-21T06:34:37;5.18;;;1.60;;
23628;SDS011;11991;57.150;-2.134;2024-02-21T06:37:04;3.15;;;1.25;;
23628;SDS011;11991;57.150;-2.134;2024-02-21T06:39:32;3.35;;;1.33;;
23628;SDS011;11991;57.150;-2.134;2024-02-21T06:41:59;3.58;;;1.20;;
23628;SDS011;11991;57.150;-2.134;2024-02-21T06:44:29;4.43;;;1.10;;
23628;SDS011;11991;57.150;-2.134;2024-02-21T06:46:58;6.53;;;1.75;;
23628;SDS011;11991;57.150;-2.134;2024-02-21T06:49:26;3.38;;;1.40;;
23628;SDS011;11991;57.150;-2.134;2024-02-21T06:51:53;4.57;;;1.40;;
23628;SDS011;11991;57.150;-2.134;2024-02-21T06:54:21;3.33;;;0.98;;
23628;SDS011;11991;57.150;-2.134;2024-02-21T06:56:48;3.72;;;1.98;;
23628;SDS011;11991;57.150;-2.134;2024-02-21T06:59:15;6.72;;;1.80;;
23628;SDS011;11991;57.150;-2.134;2024-02-21T07:01:46;2.67;;;1.25;;
23628;SDS011;11991;57.150;-2.134;2024-02-21T07:04:15;4.13;;;1.30;;
23628;SDS011;11991;57.150;-2.134;2024-02-21T07:06:42;6.38;;;1.73;;
23628;SDS011;11991;57.150;-2.134;2024-02-21T07:09:10;6.07;;;1.48;;
23628;SDS011;11991;57.150;-2.134;2024-02-21T07:11:37;4.10;;;1.17;;
23628;SDS011;11991;57.150;-2.134;2024-02-21T07:14:04;4.57;;;2.45;;
23628;SDS011;11991;57.150;-2.134;2024-02-21T07:16:31;4.65;;;1.42;;
23628;SDS011;11991;57.150;-2.134;2024-02-21T07:19:00;8.45;;;2.03;;
23628;SDS011;11991;57.150;-2.134;2024-02-21T07:21:27;7.43;;;1.70;;
23628;SDS011;11991;57.150;-2.134;2024-02-21T07:23:54;3.50;;;1.55;;
23628;SDS011;11991;57.150;-2.134;2024-02-21T07:26:21;3.33;;;1.38;;
23628;SDS011;11991;57.150;-2.134;2024-02-21T07:28:49;4.43;;;1.65;;
23628;SDS011;11991;57.150;-2.134;2024-02-21T07:31:16;6.35;;;1.70;;
23628;SDS011;11991;57.150;-2.134;2024-02-21T07:33:44;6.47;;;1.33;;
23628;SDS011;11991;57.150;-2.134;2024-02-21T07:36:11;3.65;;;1.38;;
23628;SDS011;11991;57.150;-2.134;2024-02-21T07:38:39;7.95;;;1.58;;
23628;SDS011;11991;57.150;-2.134;2024-02-21T07:41:06;2.50;;;1.25;;
23628;SDS011;11991;57.150;-2.134;2024-02-21T07:43:33;4.60;;;1.50;;
23628;SDS011;11991;57.150;-2.134;2024-02-21T07:46:01;3.47;;;1.65;;
23628;SDS011;11991;57.150;-2.134;2024-02-21T07:48:28;6.43;;;2.30;;
23628;SDS011;11991;57.150;-2.134;2024-02-21T07:50:59;8.43;;;1.92;;
23628;SDS011;11991;57.150;-2.134;2024-02-21T07:53:26;6.60;;;1.50;;
23628;SDS011;11991;57.150;-2.134;2024-02-21T07:55:53;6.68;;;1.85;;
23628;SDS011;11991;57.150;-2.134;2024-02-21T07:58:21;12.77;;;2.25;;
23628;SDS011;11991;57.150;-2.134;2024-02-21T08:00:48;5.95;;;1.50;;
23628;SDS011;11991;57.150;-2.134;2024-02-21T08:03:16;8.60;;;2.78;;
23628;SDS011;11991;57.150;-2.134;2024-02-21T08:05:44;5.25;;;1.98;;
23628;SDS011;11991;57.150;-2.134;2024-02-21T08:08:12;3.33;;;1.35;;
23628;SDS011;11991;57.150;-2.134;2024-02-21T08:10:45;4.30;;;2.00;;
23628;SDS011;11991;57.150;-2.134;2024-02-21T08:13:13;6.03;;;2.13;;
23628;SDS011;11991;57.150;-2.134;2024-02-21T08:15:40;5.88;;;2.13;;
23628;SDS011;11991;57.150;-2.134;2024-02-21T08:18:08;4.75;;;1.67;;
23628;SDS011;11991;57.150;-2.134;2024-02-21T08:20:36;4.93;;;2.05;;
23628;SDS011;11991;57.150;-2.134;2024-02-21T08:23:03;9.77;;;2.55;;
23628;SDS011;11991;57.150;-2.134;2024-02-21T08:25:30;6.07;;;1.67;;
23628;SDS011;11991;57.150;-2.134;2024-02-21T08:27:58;7.35;;;2.28;;
23628;SDS011;11991;57.150;-2.134;2024-02-21T08:30:26;9.65;;;2.10;;
23628;SDS011;11991;57.150;-2.134;2024-02-21T08:32:53;7.32;;;2.50;;
23628;SDS011;11991;57.150;-2.134;2024-02-21T08:35:21;9.60;;;2.58;;
23628;SDS011;11991;57.150;-2.134;2024-02-21T08:37:51;10.25;;;2.53;;
23628;SDS011;11991;57.150;-2.134;2024-02-21T08:40:19;7.85;;;2.55;;
23628;SDS011;11991;57.150;-2.134;2024-02-21T08:42:48;8.25;;;2.45;;
23628;SDS011;11991;57.150;-2.134;2024-02-21T08:45:16;5.07;;;1.83;;
23628;SDS011;11991;57.150;-2.134;2024-02-21T08:47:43;5.25;;;1.98;;
23628;SDS011;11991;57.150;-2.134;2024-02-21T08:50:11;6.88;;;1.83;;
23628;SDS011;11991;57.150;-2.134;2024-02-21T08:52:53;6.40;;;1.88;;
23628;SDS011;11991;57.150;-2.134;2024-02-21T08:55:21;7.35;;;2.42;;
23628;SDS011;11991;57.150;-2.134;2024-02-21T08:57:48;5.90;;;2.22;;
23628;SDS011;11991;57.150;-2.134;2024-02-21T09:00:16;9.32;;;3.10;;
23628;SDS011;11991;57.150;-2.134;2024-02-21T09:02:44;5.50;;;2.08;;
23628;SDS011;11991;57.150;-2.134;2024-02-21T09:05:11;4.00;;;1.92;;
23628;SDS011;11991;57.150;-2.134;2024-02-21T09:07:39;3.28;;;1.52;;
23628;SDS011;11991;57.150;-2.134;2024-02-21T09:10:06;4.97;;;1.98;;
23628;SDS011;11991;57.150;-2.134;2024-02-21T09:12:34;5.22;;;2.25;;
23628;SDS011;11991;57.150;-2.134;2024-02-21T09:15:01;3.78;;;2.20;;
23628;SDS011;11991;57.150;-2.134;2024-02-21T09:17:28;3.97;;;2.20;;
23628;SDS011;11991;57.150;-2.134;2024-02-21T09:19:56;6.38;;;2.03;;
23628;SDS011;11991;57.150;-2.134;2024-02-21T09:22:26;4.85;;;1.95;;
23628;SDS011;11991;57.150;-2.134;2024-02-21T09:24:54;6.60;;;3.05;;
23628;SDS011;11991;57.150;-2.134;2024-02-21T09:27:21;3.60;;;2.03;;
23628;SDS011;11991;57.150;-2.134;2024-02-21T09:29:49;6.15;;;2.08;;
23628;SDS011;11991;57.150;-2.134;2024-02-21T09:32:17;4.70;;;2.00;;
23628;SDS011;11991;57.150;-2.134;2024-02-21T09:34:45;7.38;;;3.28;;
23628;SDS011;11991;57.150;-2.134;2024-02-21T09:37:13;4.13;;;1.85;;
23628;SDS011;11991;57.150;-2.134;2024-02-21T09:39:40;4.80;;;2.10;;
23628;SDS011;11991;57.150;-2.134;2024-02-21T09:42:07;7.63;;;2.00;;
23628;SDS011;11991;57.150;-2.134;2024-02-21T09:44:38;6.03;;;2.20;;
23628;SDS011;11991;57.150;-2.134;2024-02-21T09:47:06;4.63;;;2.00;;
23628;SDS011;11991;57.150;-2.134;2024-02-21T09:49:38;7.15;;;2.58;;
23628;SDS011;11991;57.150;-2.134;2024-02-21T09:52:09;6.38;;;2.17;;
23628;SDS011;11991;57.150;-2.134;2024-02-21T09:54:40;3.97;;;1.98;;
23628;SDS011;11991;57.150;-2.134;2024-02-21T09:57:11;7.72;;;2.50;;
23628;SDS011;11991;57.150;-2.134;2024-02-21T09:59:39;6.70;;;2.92;;
23628;SDS011;11991;57.150;-2.134;2024-02-21T10:02:08;5.88;;;2.08;;
23628;SDS011;11991;57.150;-2.134;2024-02-21T10:04:36;6.20;;;2.30;;
23628;SDS011;11991;57.150;-2.134;2024-02-21T10:07:03;6.50;;;3.05;;
23628;SDS011;11991;57.150;-2.134;2024-02-21T10:09:31;4.15;;;2.20;;
23628;SDS011;11991;57.150;-2.134;2024-02-21T10:12:09;6.32;;;2.25;;
23628;SDS011;11991;57.150;-2.134;2024-02-21T10:14:38;5.72;;;2.22;;
23628;SDS011;11991;57.150;-2.134;2024-02-21T10:17:05;9.13;;;2.40;;
23628;SDS011;11991;57.150;-2.134;2024-02-21T10:19:37;6.38;;;2.80;;
23628;SDS011;11991;57.150;-2.134;2024-02-21T10:22:07;12.13;;;3.80;;
23628;SDS011;11991;57.150;-2.134;2024-02-21T10:24:36;7.75;;;2.95;;
23628;SDS011;11991;57.150;-2.134;2024-02-21T10:27:05;6.18;;;2.03;;
23628;SDS011;11991;57.150;-2.134;2024-02-21T10:29:38;10.15;;;2.70;;
23628;SDS011;11991;57.150;-2.134;2024-02-21T10:32:10;5.50;;;2.45;;
23628;SDS011;11991;57.150;-2.134;2024-02-21T10:34:39;5.22;;;2.28;;
23628;SDS011;11991;57.150;-2.134;2024-02-21T10:37:09;2.83;;;1.55;;
23628;SDS011;11991;57.150;-2.134;2024-02-21T10:39:38;3.85;;;1.88;;
23628;SDS011;11991;57.150;-2.134;2024-02-21T10:42:07;7.10;;;2.20;;
23628;SDS011;11991;57.150;-2.134;2024-02-21T10:44:38;4.03;;;1.42;;
23628;SDS011;11991;57.150;-2.134;2024-02-21T10:47:08;2.65;;;1.42;;
23628;SDS011;11991;57.150;-2.134;2024-02-21T10:49:38;8.15;;;2.97;;
23628;SDS011;11991;57.150;-2.134;2024-02-21T10:55:20;3.70;;;1.90;;
23628;SDS011;11991;57.150;-2.134;2024-02-21T10:57:50;5.60;;;2.22;;
23628;SDS011;11991;57.150;-2.134;2024-02-21T11:00:18;7.38;;;2.55;;
23628;SDS011;11991;57.150;-2.134;2024-02-21T11:02:46;4.28;;;1.85;;
23628;SDS011;11991;57.150;-2.134;2024-02-21T11:05:16;4.18;;;1.77;;
23628;SDS011;11991;57.150;-2.134;2024-02-21T11:07:44;4.63;;;1.80;;
23628;SDS011;11991;57.150;-2.134;2024-02-21T11:10:24;5.65;;;1.92;;
23628;SDS011;11991;57.150;-2.134;2024-02-21T11:12:53;9.20;;;3.28;;
23628;SDS011;11991;57.150;-2.134;2024-02-21T11:15:25;7.63;;;2.42;;
23628;SDS011;11991;57.150;-2.134;2024-02-21T11:17:54;6.40;;;3.13;;
23628;SDS011;11991;57.150;-2.134;2024-02-21T11:20:37;2.90;;;1.50;;
23628;SDS011;11991;57.150;-2.134;2024-02-21T11:23:05;7.38;;;2.67;;
23628;SDS011;11991;57.150;-2.134;2024-02-21T11:25:32;7.57;;;3.47;;
23628;SDS011;11991;57.150;-2.134;2024-02-21T11:28:02;3.53;;;1.75;;
23628;SDS011;11991;57.150;-2.134;2024-02-21T11:30:30;8.60;;;3.67;;
23628;SDS011;11991;57.150;-2.134;2024-02-21T11:33:01;4.72;;;2.20;;
23628;SDS011;11991;57.150;-2.134;2024-02-21T11:35:33;10.18;;;2.95;;
23628;SDS011;11991;57.150;-2.134;2024-02-21T11:38:11;6.78;;;2.97;;
23628;SDS011;11991;57.150;-2.134;2024-02-21T11:40:44;6.80;;;2.58;;
23628;SDS011;11991;57.150;-2.134;2024-02-21T11:43:13;8.55;;;3.35;;
23628;SDS011;11991;57.150;-2.134;2024-02-21T11:45:41;9.35;;;2.72;;
23628;SDS011;11991;57.150;-2.134;2024-02-21T11:48:08;12.75;;;3.63;;
23628;SDS011;11991;57.150;-2.134;2024-02-21T11:50:36;13.73;;;3.53;;
23628;SDS011;11991;57.150;-2.134;2024-02-21T11:53:05;8.55;;;2.45;;
23628;SDS011;11991;57.150;-2.134;2024-02-21T11:55:33;8.40;;;2.60;;
23628;SDS011;11991;57.150;-2.134;2024-02-21T11:58:01;10.30;;;3.40;;
23628;SDS011;11991;57.150;-2.134;2024-02-21T12:00:29;9.40;;;3.10;;
23628;SDS011;11991;57.150;-2.134;2024-02-21T12:02:57;9.02;;;2.67;;
23628;SDS011;11991;57.150;-2.134;2024-02-21T12:05:29;9.00;;;3.42;;
23628;SDS011;11991;57.150;-2.134;2024-02-21T12:07:57;7.30;;;2.80;;
23628;SDS011;11991;57.150;-2.134;2024-02-21T12:10:28;6.78;;;2.20;;
23628;SDS011;11991;57.150;-2.134;2024-02-21T12:13:06;11.05;;;3.30;;
23628;SDS011;11991;57.150;-2.134;2024-02-21T12:15:36;8.73;;;3.08;;
23628;SDS011;11991;57.150;-2.134;2024-02-21T12:18:05;12.18;;;3.83;;
23628;SDS011;11991;57.150;-2.134;2024-02-21T12:20:32;10.43;;;2.88;;
23628;SDS011;11991;57.150;-2.134;2024-02-21T12:23:00;5.18;;;2.55;;
23628;SDS011;11991;57.150;-2.134;2024-02-21T12:25:28;9.43;;;3.58;;
23628;SDS011;11991;57.150;-2.134;2024-02-21T12:27:55;16.50;;;3.88;;
23628;SDS011;11991;57.150;-2.134;2024-02-21T12:30:23;15.40;;;4.28;;
23628;SDS011;11991;57.150;-2.134;2024-02-21T12:32:50;15.52;;;4.25;;
23628;SDS011;11991;57.150;-2.134;2024-02-21T12:35:17;7.90;;;2.55;;
23628;SDS011;11991;57.150;-2.134;2024-02-21T12:37:45;10.52;;;2.72;;
23628;SDS011;11991;57.150;-2.134;2024-02-21T12:40:13;6.18;;;2.80;;
23628;SDS011;11991;57.150;-2.134;2024-02-21T12:42:41;15.27;;;4.35;;
23628;SDS011;11991;57.150;-2.134;2024-02-21T12:45:09;8.25;;;2.47;;
23628;SDS011;11991;57.150;-2.134;2024-02-21T12:47:36;8.80;;;3.05;;
23628;SDS011;11991;57.150;-2.134;2024-02-21T12:50:04;6.45;;;2.45;;
23628;SDS011;11991;57.150;-2.134;2024-02-21T12:52:34;10.68;;;4.20;;
23628;SDS011;11991;57.150;-2.134;2024-02-21T12:55:01;13.40;;;3.55;;
23628;SDS011;11991;57.150;-2.134;2024-02-21T12:57:29;6.18;;;2.72;;
23628;SDS011;11991;57.150;-2.134;2024-02-21T12:59:56;9.45;;;3.38;;
23628;SDS011;11991;57.150;-2.134;2024-02-21T13:02:24;8.18;;;2.80;;
23628;SDS011;11991;57.150;-2.134;2024-02-21T13:04:51;9.77;;;2.72;;
23628;SDS011;11991;57.150;-2.134;2024-02-21T13:07:18;10.55;;;3.40;;
23628;SDS011;11991;57.150;-2.134;2024-02-21T13:09:46;11.60;;;2.90;;
23628;SDS011;11991;57.150;-2.134;2024-02-21T13:12:13;8.32;;;3.15;;
23628;SDS011;11991;57.150;-2.134;2024-02-21T13:14:40;5.10;;;1.75;;
23628;SDS011;11991;57.150;-2.134;2024-02-21T13:17:10;11.30;;;2.55;;
23628;SDS011;11991;57.150;-2.134;2024-02-21T13:19:38;8.35;;;3.55;;
23628;SDS011;11991;57.150;-2.134;2024-02-21T13:22:05;6.30;;;1.88;;
23628;SDS011;11991;57.150;-2.134;2024-02-21T13:24:33;6.63;;;2.55;;
23628;SDS011;11991;57.150;-2.134;2024-02-21T13:27:00;4.88;;;2.03;;
23628;SDS011;11991;57.150;-2.134;2024-02-21T13:29:30;5.38;;;2.20;;
23628;SDS011;11991;57.150;-2.134;2024-02-21T13:31:57;6.80;;;2.72;;
23628;SDS011;11991;57.150;-2.134;2024-02-21T13:34:25;7.30;;;2.70;;
23628;SDS011;11991;57.150;-2.134;2024-02-21T13:36:52;3.70;;;1.52;;
23628;SDS011;11991;57.150;-2.134;2024-02-21T13:39:19;7.40;;;2.05;;
23628;SDS011;11991;57.150;-2.134;2024-02-21T13:41:46;7.10;;;2.03;;
23628;SDS011;11991;57.150;-2.134;2024-02-21T13:44:14;6.45;;;2.13;;
23628;SDS011;11991;57.150;-2.134;2024-02-21T13:46:41;8.55;;;1.83;;
23628;SDS011;11991;57.150;-2.134;2024-02-21T13:49:08;7.68;;;2.33;;
23628;SDS011;11991;57.150;-2.134;2024-02-21T13:51:36;7.97;;;2.70;;
23628;SDS011;11991;57.150;-2.134;2024-02-21T13:54:04;10.13;;;2.83;;
23628;SDS011;11991;57.150;-2.134;2024-02-21T13:56:31;10.38;;;2.83;;
23628;SDS011;11991;57.150;-2.134;2024-02-21T13:58:59;10.02;;;2.42;;
23628;SDS011;11991;57.150;-2.134;2024-02-21T14:01:27;7.60;;;2.83;;
23628;SDS011;11991;57.150;-2.134;2024-02-21T14:03:59;7.65;;;2.22;;
23628;SDS011;11991;57.150;-2.134;2024-02-21T14:06:26;8.95;;;2.45;;
23628;SDS011;11991;57.150;-2.134;2024-02-21T14:08:54;6.57;;;2.72;;
23628;SDS011;11991;57.150;-2.134;2024-02-21T14:11:22;8.05;;;2.35;;
23628;SDS011;11991;57.150;-2.134;2024-02-21T14:13:50;7.63;;;2.60;;
23628;SDS011;11991;57.150;-2.134;2024-02-21T14:16:18;5.55;;;1.83;;
23628;SDS011;11991;57.150;-2.134;2024-02-21T14:18:45;7.10;;;2.63;;
23628;SDS011;11991;57.150;-2.134;2024-02-21T14:21:12;9.77;;;2.78;;
23628;SDS011;11991;57.150;-2.134;2024-02-21T14:23:40;7.28;;;2.55;;
23628;SDS011;11991;57.150;-2.134;2024-02-21T14:26:08;5.20;;;1.90;;
23628;SDS011;11991;57.150;-2.134;2024-02-21T14:28:35;6.97;;;2.10;;
23628;SDS011;11991;57.150;-2.134;2024-02-21T14:31:02;6.13;;;2.40;;
23628;SDS011;11991;57.150;-2.134;2024-02-21T14:33:32;6.70;;;2.00;;
23628;SDS011;11991;57.150;-2.134;2024-02-21T14:36:00;8.27;;;2.65;;
23628;SDS011;11991;57.150;-2.134;2024-02-21T14:38:27;9.88;;;2.65;;
23628;SDS011;11991;57.150;-2.134;2024-02-21T14:40:55;4.35;;;1.92;;
23628;SDS011;11991;57.150;-2.134;2024-02-21T14:43:22;8.23;;;2.70;;